Time;durP1;ratioP1;P1;durP2;ratioP2;P2;SDS_P1;SDS_P2;PMS_P1;PMS_P2;Temp;Humidity;BMP_temperature;BMP_pressure;BME280_temperature;BME280_humidity;BME280_pressure;Samples;Min_cycle;Max_cycle;Signal;HPM_P1;HPM_P2
2022/04/24 00:01:32;;;;;;;;;22.75;19.00;;;;;14.28;59.59;98973.09;4999015;28;45306;-62
2022/04/24 00:03:58;;;;;;;;;25.25;22.00;;;;;14.21;59.93;98970.09;5016580;28;45314;-61
2022/04/24 00:06:23;;;;;;;;;22.50;22.50;;;;;14.15;59.76;98970.59;5016513;28;45371;-61
2022/04/24 00:08:52;;;;;;;;;26.00;22.75;;;;;14.12;60.31;98969.03;5016132;28;46151;-61
2022/04/24 00:11:18;;;;;;;;;23.50;23.50;;;;;14.07;60.61;98973.88;5016382;28;45363;-59
2022/04/24 00:13:43;;;;;;;;;24.25;21.75;;;;;14.00;60.80;98964.75;5015340;28;45341;-61
2022/04/24 00:16:10;;;;;;;;;26.50;23.00;;;;;13.93;60.79;98960.91;5016450;28;45594;-61
2022/04/24 00:18:38;;;;;;;;;26.25;23.50;;;;;13.88;61.13;98958.63;5016372;28;45379;-63
2022/04/24 00:21:04;;;;;;;;;24.00;21.75;;;;;13.81;61.21;98957.44;5016645;28;45204;-63
2022/04/24 00:23:30;;;;;;;;;26.00;23.50;;;;;13.76;61.51;98964.91;4988929;28;45387;-64
2022/04/24 00:25:56;;;;;;;;;28.50;25.25;;;;;13.68;61.73;98957.56;4977227;28;45339;-64
2022/04/24 00:28:21;;;;;;;;;28.25;26.00;;;;;13.67;61.97;98955.88;4976588;28;45394;-61
2022/04/24 00:30:47;;;;;;;;;26.25;24.00;;;;;13.59;61.69;98946.78;4991992;28;45511;-63
2022/04/24 00:33:12;;;;;;;;;24.25;21.25;;;;;13.57;61.90;98955.78;4994704;28;45462;-63
2022/04/24 00:35:38;;;;;;;;;22.00;22.00;;;;;13.49;62.02;98956.38;4977065;28;45546;-64
2022/04/24 00:38:03;;;;;;;;;20.75;19.25;;;;;13.44;62.70;98958.53;4996261;28;46615;-65
2022/04/24 00:40:28;;;;;;;;;25.75;24.50;;;;;13.38;62.75;98956.34;4994639;28;45471;-63
2022/04/24 00:42:54;;;;;;;;;24.00;24.00;;;;;13.30;63.07;98955.16;4996334;28;45226;-65
2022/04/24 00:45:19;;;;;;;;;25.75;23.50;;;;;13.24;62.98;98949.50;4996413;28;45314;-66
2022/04/24 00:47:45;;;;;;;;;23.25;22.75;;;;;13.21;63.48;98969.06;4996098;28;45247;-63
2022/04/24 00:50:10;;;;;;;;;22.50;20.00;;;;;13.16;63.68;98960.66;4996158;28;45443;-64
2022/04/24 00:52:37;;;;;;;;;25.25;24.00;;;;;13.08;63.93;98961.25;4996574;28;45330;-66
2022/04/24 00:55:04;;;;;;;;;23.50;21.00;;;;;13.03;63.32;98966.03;4996495;28;45632;-64
2022/04/24 00:57:30;;;;;;;;;28.25;27.00;;;;;12.96;63.91;98960.41;4995067;28;45705;-61
2022/04/24 00:59:55;;;;;;;;;24.00;24.00;;;;;12.92;63.92;98968.66;4996098;28;45465;-62
2022/04/24 01:02:20;;;;;;;;;27.75;22.25;;;;;12.89;63.74;98966.25;4996193;28;45374;-64
2022/04/24 01:04:46;;;;;;;;;22.50;16.50;;;;;12.85;64.19;98969.13;4996194;28;45470;-62
2022/04/24 01:07:12;;;;;;;;;26.75;23.75;;;;;12.82;64.16;98969.34;4995628;28;45403;-63
2022/04/24 01:09:37;;;;;;;;;31.75;26.00;;;;;12.78;64.12;98959.16;4990090;28;45577;-62
2022/04/24 01:12:04;;;;;;;;;19.50;17.25;;;;;12.73;64.61;98966.56;4974769;28;45544;-63
2022/04/24 01:14:30;;;;;;;;;24.50;20.75;;;;;12.69;64.58;98973.88;4976288;28;45364;-60
2022/04/24 01:16:56;;;;;;;;;20.00;19.00;;;;;12.64;64.73;98974.19;4974195;28;45472;-63
2022/04/24 01:19:24;;;;;;;;;33.00;31.00;;;;;12.60;64.87;98971.91;4975880;28;45184;-61
2022/04/24 01:21:50;;;;;;;;;26.50;26.50;;;;;12.49;65.32;98959.50;4975228;28;45456;-62
2022/04/24 01:24:20;;;;;;;;;25.75;24.75;;;;;12.48;65.33;98978.94;4976103;28;45630;-64
2022/04/24 01:26:46;;;;;;;;;30.75;27.25;;;;;12.39;66.00;98975.19;4958065;28;48208;-65
2022/04/24 01:29:12;;;;;;;;;25.75;23.00;;;;;12.34;65.70;98978.16;4976139;28;45270;-64
2022/04/24 01:31:38;;;;;;;;;29.75;28.00;;;;;12.35;66.16;98987.75;4975930;28;45474;-62
2022/04/24 01:34:03;;;;;;;;;29.00;26.75;;;;;12.27;66.68;98983.06;4976699;28;45177;-63
2022/04/24 01:36:29;;;;;;;;;27.50;22.50;;;;;12.26;66.52;98984.00;4956967;28;48098;-63
2022/04/24 01:38:54;;;;;;;;;24.50;23.00;;;;;12.20;66.68;98983.59;4975751;28;45446;-61
2022/04/24 01:41:19;;;;;;;;;24.50;22.75;;;;;12.15;66.75;98980.44;4978598;28;45372;-62
2022/04/24 01:43:46;;;;;;;;;22.00;22.00;;;;;12.12;67.52;98985.00;4973911;28;45551;-61
2022/04/24 01:46:13;;;;;;;;;25.50;24.00;;;;;12.06;67.68;98990.72;4975233;28;46245;-60
2022/04/24 01:48:39;;;;;;;;;28.25;26.75;;;;;12.04;67.40;98991.75;4974442;28;45436;-62
2022/04/24 01:51:07;;;;;;;;;27.25;25.25;;;;;12.01;67.38;98986.72;4973744;28;45449;-61
2022/04/24 01:53:33;;;;;;;;;26.50;22.50;;;;;11.96;67.60;98990.47;4973972;28;45445;-62
2022/04/24 01:56:01;;;;;;;;;20.50;20.50;;;;;11.90;67.79;98990.09;4975558;28;46288;-59
2022/04/24 01:58:27;;;;;;;;;23.75;20.25;;;;;11.87;68.14;99000.84;4975507;28;45444;-59
2022/04/24 02:00:53;;;;;;;;;25.25;22.50;;;;;11.88;68.04;99005.16;4975544;28;45479;-60
2022/04/24 02:03:20;;;;;;;;;29.25;26.25;;;;;11.87;67.71;99000.84;4975745;28;45516;-62
2022/04/24 02:05:46;;;;;;;;;20.00;18.00;;;;;11.84;68.26;99008.03;4975225;28;45474;-61
2022/04/24 02:08:12;;;;;;;;;26.00;25.75;;;;;11.83;67.81;99005.47;4973983;28;45478;-60
2022/04/24 02:10:37;;;;;;;;;24.50;18.50;;;;;11.79;67.71;99004.00;4975671;28;45254;-60
2022/04/24 02:13:03;;;;;;;;;18.75;18.75;;;;;11.83;67.62;99016.88;4975529;28;45247;-61
2022/04/24 02:15:28;;;;;;;;;26.50;24.75;;;;;11.82;67.88;99009.06;4975117;28;45409;-60
2022/04/24 02:17:55;;;;;;;;;21.25;21.00;;;;;11.80;67.56;99011.81;4975271;28;45361;-59
2022/04/24 02:20:20;;;;;;;;;22.50;22.00;;;;;11.77;67.69;99012.03;4975444;28;45384;-59
2022/04/24 02:22:45;;;;;;;;;19.25;19.25;;;;;11.76;67.62;99013.00;4975647;28;45575;-60
2022/04/24 02:25:11;;;;;;;;;18.75;18.00;;;;;11.75;67.67;99019.22;4975260;28;45394;-60
2022/04/24 02:27:37;;;;;;;;;22.00;22.00;;;;;11.73;67.41;99015.84;4975594;28;45303;-64
2022/04/24 02:30:03;;;;;;;;;23.00;22.00;;;;;11.72;67.67;99019.44;4975344;28;45410;-63
2022/04/24 02:32:28;;;;;;;;;18.50;17.25;;;;;11.70;67.45;99016.06;4975352;28;45486;-62
2022/04/24 02:34:54;;;;;;;;;22.00;20.75;;;;;11.68;67.69;99020.59;4975134;28;45362;-62
2022/04/24 02:37:19;;;;;;;;;19.25;19.25;;;;;11.66;67.78;99025.09;4960610;28;45495;-64
2022/04/24 02:39:45;;;;;;;;;20.25;18.25;;;;;11.65;67.84;99026.91;4979046;28;45373;-66
2022/04/24 02:42:10;;;;;;;;;21.75;20.00;;;;;11.62;67.70;99031.53;4978989;28;45278;-61
2022/04/24 02:44:36;;;;;;;;;23.75;22.25;;;;;11.60;67.89;99025.53;4978603;28;46327;-63
2022/04/24 02:47:02;;;;;;;;;23.25;23.25;;;;;11.57;67.59;99025.75;4978443;28;45375;-63
2022/04/24 02:49:27;;;;;;;;;19.75;19.75;;;;;11.57;67.38;99026.59;4978488;28;45425;-63
2022/04/24 02:51:52;;;;;;;;;25.00;20.00;;;;;11.54;67.80;99027.63;4978583;28;45557;-62
2022/04/24 02:54:18;;;;;;;;;22.00;19.50;;;;;11.52;67.58;99034.78;4978322;28;46507;-63
2022/04/24 02:56:43;;;;;;;;;19.50;18.50;;;;;11.48;67.85;99027.22;4978308;28;45554;-65
2022/04/24 02:59:09;;;;;;;;;22.50;18.75;;;;;11.47;68.29;99038.72;4978619;28;45413;-63
2022/04/24 03:01:34;;;;;;;;;16.25;16.25;;;;;11.43;67.74;99030.16;4978389;28;45302;-64
2022/04/24 03:04:00;;;;;;;;;26.50;20.00;;;;;11.44;67.48;99038.94;4977941;28;46066;-59
2022/04/24 03:06:25;;;;;;;;;26.50;24.50;;;;;11.42;67.97;99046.09;4977817;28;45464;-63
2022/04/24 03:08:51;;;;;;;;;22.25;22.25;;;;;11.39;67.82;99033.97;4978200;28;45343;-62
2022/04/24 03:11:16;;;;;;;;;21.00;19.75;;;;;11.35;67.94;99038.59;4978484;28;45348;-64
2022/04/24 03:13:42;;;;;;;;;17.25;17.25;;;;;11.34;68.15;99041.34;4980017;28;46136;-60
2022/04/24 03:16:09;;;;;;;;;21.75;18.75;;;;;11.34;67.95;99043.97;4998295;28;45346;-62
2022/04/24 03:18:35;;;;;;;;;20.25;18.50;;;;;11.31;67.56;99041.53;4998131;28;45304;-64
2022/04/24 03:21:00;;;;;;;;;23.25;21.50;;;;;11.31;67.75;99047.66;4998235;28;45303;-64
2022/04/24 03:23:26;;;;;;;;;20.75;20.75;;;;;11.30;67.47;99050.38;4998056;28;45912;-63
2022/04/24 03:25:51;;;;;;;;;20.75;19.50;;;;;11.23;67.45;99045.53;4998000;28;45420;-64
2022/04/24 03:28:17;;;;;;;;;21.25;21.25;;;;;11.25;68.04;99048.09;4997823;28;45238;-64
2022/04/24 03:30:43;;;;;;;;;21.00;20.50;;;;;11.21;68.06;99052.69;4998312;28;45330;-63
2022/04/24 03:33:09;;;;;;;;;17.75;16.25;;;;;11.20;67.96;99050.19;4997953;28;46531;-63
2022/04/24 03:35:35;;;;;;;;;21.50;21.50;;;;;11.14;68.16;99040.91;4997810;28;45412;-60
2022/04/24 03:38:01;;;;;;;;;17.25;17.25;;;;;11.17;68.29;99048.59;4997677;28;45310;-64
2022/04/24 03:40:26;;;;;;;;;26.25;22.25;;;;;11.16;68.26;99056.59;4997899;28;45355;-60
2022/04/24 03:42:52;;;;;;;;;19.25;19.25;;;;;11.14;67.99;99056.69;4997457;28;45639;-61
2022/04/24 03:45:17;;;;;;;;;23.25;19.50;;;;;11.14;67.79;99059.31;4997414;28;45410;-60
2022/04/24 03:47:43;;;;;;;;;21.25;20.25;;;;;11.14;67.92;99064.59;4996270;28;45383;-61
2022/04/24 03:50:09;;;;;;;;;24.25;21.25;;;;;11.13;68.03;99060.25;4997938;28;45315;-61
2022/04/24 03:52:34;;;;;;;;;31.50;28.25;;;;;11.11;67.91;99056.88;4997130;28;46628;-60
2022/04/24 03:55:00;;;;;;;;;24.25;23.50;;;;;11.11;67.67;99064.78;4995355;28;45603;-60
2022/04/24 03:57:25;;;;;;;;;24.00;20.25;;;;;11.10;68.22;99055.22;4996027;28;45351;-60
2022/04/24 03:59:51;;;;;;;;;24.50;22.50;;;;;11.06;67.77;99051.91;4996597;28;45579;-58
2022/04/24 04:02:16;;;;;;;;;17.75;16.50;;;;;11.06;68.18;99053.72;4996381;28;46537;-61
2022/04/24 04:04:42;;;;;;;;;24.00;20.25;;;;;11.09;68.05;99061.41;4996270;28;45338;-60
2022/04/24 04:07:07;;;;;;;;;21.75;20.25;;;;;11.07;67.97;99064.13;4996629;28;45234;-59
2022/04/24 04:09:33;;;;;;;;;23.25;21.00;;;;;11.05;68.16;99071.28;4997056;28;45286;-60
2022/04/24 04:11:58;;;;;;;;;22.50;17.50;;;;;11.05;67.66;99075.72;4996633;28;45385;-61
2022/04/24 04:14:23;;;;;;;;;27.50;26.00;;;;;11.06;67.89;99069.50;4996716;28;45233;-63
2022/04/24 04:16:49;;;;;;;;;28.75;26.50;;;;;11.04;68.25;99076.66;4996770;28;45368;-62
2022/04/24 04:19:15;;;;;;;;;23.50;20.75;;;;;10.99;67.80;99069.06;4997382;28;45361;-60
2022/04/24 04:21:42;;;;;;;;;22.50;18.00;;;;;10.97;67.66;99070.94;4995960;28;45472;-60
2022/04/24 04:24:09;;;;;;;;;20.75;20.75;;;;;11.00;67.83;99072.56;4996623;28;45341;-62
2022/04/24 04:26:35;;;;;;;;;20.75;20.00;;;;;11.01;68.12;99080.34;4996697;28;45333;-60
2022/04/24 04:29:00;;;;;;;;;19.50;17.75;;;;;10.98;68.09;99080.53;4996833;28;45298;-60
2022/04/24 04:31:26;;;;;;;;;21.50;21.00;;;;;10.96;68.25;99078.03;4996364;28;46340;-61
2022/04/24 04:33:51;;;;;;;;;24.50;22.00;;;;;10.96;67.99;99079.78;4996427;28;45233;-63
2022/04/24 04:36:16;;;;;;;;;24.00;22.75;;;;;10.99;67.78;99086.66;4996639;28;45213;-60
2022/04/24 04:38:42;;;;;;;;;27.50;26.25;;;;;10.98;68.30;99085.78;4997080;28;45337;-63
2022/04/24 04:41:08;;;;;;;;;28.50;25.50;;;;;10.97;68.48;99081.47;4996249;28;45351;-62
2022/04/24 04:43:33;;;;;;;;;30.75;29.75;;;;;10.98;68.33;99082.34;4996305;28;45338;-63
2022/04/24 04:45:58;;;;;;;;;32.75;28.00;;;;;10.95;68.31;99078.09;4996430;28;45215;-64
2022/04/24 04:48:24;;;;;;;;;31.25;29.75;;;;;10.98;68.21;99092.84;4978836;28;45559;-60
2022/04/24 04:50:50;;;;;;;;;31.75;30.75;;;;;10.96;68.32;99088.53;4996048;28;45538;-61
2022/04/24 04:53:15;;;;;;;;;41.00;35.00;;;;;10.97;68.20;99097.25;4996474;28;45253;-63
2022/04/24 04:55:41;;;;;;;;;38.00;30.75;;;;;10.99;68.15;99097.19;4996318;28;45316;-63
2022/04/24 04:58:06;;;;;;;;;30.75;30.50;;;;;11.00;67.79;99096.22;4995937;28;45306;-62
2022/04/24 05:00:31;;;;;;;;;31.50;24.25;;;;;10.98;68.00;99104.22;4995648;28;46528;-63
2022/04/24 05:02:57;;;;;;;;;28.50;26.75;;;;;10.99;67.70;99105.06;4995870;28;45380;-62
2022/04/24 05:05:22;;;;;;;;;21.00;18.75;;;;;10.95;67.54;99102.63;4995898;28;45423;-64
2022/04/24 05:07:47;;;;;;;;;22.00;21.00;;;;;11.01;67.73;99118.97;4996676;28;45818;-62
2022/04/24 05:10:13;;;;;;;;;25.00;23.50;;;;;11.00;67.97;99114.66;4978604;28;48012;-65
2022/04/24 05:12:38;;;;;;;;;24.25;22.00;;;;;11.01;67.71;99122.44;4995986;28;45474;-63
2022/04/24 05:15:06;;;;;;;;;26.50;23.50;;;;;11.05;67.76;99125.72;4996137;28;45370;-60
2022/04/24 05:17:34;;;;;;;;;23.00;21.25;;;;;11.05;67.66;99121.28;4995836;28;45627;-59
2022/04/24 05:19:59;;;;;;;;;24.25;22.25;;;;;11.11;66.97;99135.84;4995759;28;45742;-60
2022/04/24 05:22:25;;;;;;;;;24.75;24.50;;;;;11.14;67.29;99135.63;4995613;28;45410;-60
2022/04/24 05:24:50;;;;;;;;;26.75;22.50;;;;;11.14;66.87;99135.63;4995598;28;45341;-60
2022/04/24 05:27:16;;;;;;;;;24.75;24.75;;;;;11.17;66.73;99135.44;4996059;28;45375;-62
2022/04/24 05:29:42;;;;;;;;;28.50;22.00;;;;;11.20;67.03;99137.03;4995751;28;46345;-60
2022/04/24 05:32:08;;;;;;;;;21.25;19.50;;;;;11.23;66.80;99142.09;4995248;28;45355;-62
2022/04/24 05:34:33;;;;;;;;;25.25;22.50;;;;;11.25;66.56;99141.03;4995727;28;45428;-61
2022/04/24 05:36:59;;;;;;;;;24.25;24.25;;;;;11.30;66.28;99151.28;4996111;28;45827;-62
2022/04/24 05:39:24;;;;;;;;;27.25;25.00;;;;;11.32;66.76;99144.13;4977703;28;45478;-61
2022/04/24 05:41:50;;;;;;;;;26.25;23.50;;;;;11.39;66.13;99149.78;4977652;28;45409;-59
2022/04/24 05:44:15;;;;;;;;;20.75;17.50;;;;;11.43;66.38;99161.81;4995828;28;45271;-61
2022/04/24 05:46:40;;;;;;;;;27.50;23.25;;;;;11.44;66.23;99152.97;4995736;28;45325;-60
2022/04/24 05:49:06;;;;;;;;;24.25;22.50;;;;;11.48;66.33;99154.44;4995162;28;46174;-60
2022/04/24 05:51:33;;;;;;;;;24.75;21.50;;;;;11.51;65.84;99150.78;4995185;28;45318;-63
2022/04/24 05:53:59;;;;;;;;;29.00;25.50;;;;;11.54;66.18;99156.66;4995305;28;45359;-63
2022/04/24 05:56:24;;;;;;;;;21.00;19.50;;;;;11.62;65.83;99165.84;4995717;28;45380;-62
2022/04/24 05:58:49;;;;;;;;;20.25;20.25;;;;;11.66;65.87;99162.06;4995564;28;45407;-61
2022/04/24 06:01:15;;;;;;;;;30.25;25.50;;;;;11.71;65.25;99175.78;4995522;28;45353;-60
2022/04/24 06:03:41;;;;;;;;;24.25;23.25;;;;;11.75;65.51;99172.00;4995350;28;45365;-62
2022/04/24 06:06:07;;;;;;;;;28.50;25.75;;;;;11.79;65.59;99178.75;4993682;28;45610;-63
2022/04/24 06:08:32;;;;;;;;;23.50;22.75;;;;;11.84;65.44;99174.00;4994636;28;46311;-62
2022/04/24 06:10:58;;;;;;;;;25.00;24.00;;;;;11.90;65.11;99166.63;4993761;28;45442;-60
2022/04/24 06:13:23;;;;;;;;;33.75;29.25;;;;;11.94;64.62;99176.84;4995273;28;45476;-59
2022/04/24 06:15:48;;;;;;;;;23.50;23.50;;;;;11.99;64.89;99173.91;4995390;28;45563;-61
2022/04/24 06:18:14;;;;;;;;;29.25;26.75;;;;;12.04;64.84;99166.56;4994531;28;45526;-62
2022/04/24 06:20:39;;;;;;;;;23.50;21.75;;;;;12.08;64.45;99169.81;4994783;28;45407;-64
2022/04/24 06:23:05;;;;;;;;;30.25;25.50;;;;;12.12;64.19;99174.78;4977167;28;45344;-60
2022/04/24 06:25:32;;;;;;;;;25.25;25.25;;;;;12.21;64.27;99180.34;4994806;28;45683;-63
2022/04/24 06:27:58;;;;;;;;;32.50;28.75;;;;;12.27;64.33;99177.28;4994483;28;45767;-63
2022/04/24 06:30:26;;;;;;;;;33.25;30.00;;;;;12.35;63.44;99195.22;4994538;28;45393;-62
2022/04/24 06:32:52;;;;;;;;;31.00;29.00;;;;;12.38;63.41;99190.56;4995285;28;45389;-60
2022/04/24 06:35:18;;;;;;;;;31.00;28.75;;;;;12.42;63.19;99194.66;4995357;28;45325;-61
2022/04/24 06:37:46;;;;;;;;;32.75;30.00;;;;;12.48;63.10;99197.81;4994568;28;45533;-60
2022/04/24 06:40:13;;;;;;;;;32.25;31.00;;;;;12.52;63.28;99196.66;4994582;28;45281;-63
2022/04/24 06:42:51;;;;;;;;;32.75;29.25;;;;;12.61;63.05;99206.56;4994824;28;45365;-62
2022/04/24 06:45:24;;;;;;;;;31.50;27.25;;;;;12.65;62.98;99205.38;4994863;28;45431;-63
2022/04/24 06:47:50;;;;;;;;;31.50;30.00;;;;;12.72;62.37;99203.16;4994419;28;45619;-64
2022/04/24 06:50:15;;;;;;;;;37.25;32.00;;;;;12.76;62.35;99204.63;4994245;28;45452;-64
2022/04/24 06:52:41;;;;;;;;;33.75;31.50;;;;;12.77;62.07;99200.22;4994477;28;45407;-65
2022/04/24 06:55:07;;;;;;;;;36.75;31.50;;;;;12.87;62.22;99201.25;4994521;28;45471;-63
2022/04/24 06:57:33;;;;;;;;;35.25;30.25;;;;;12.96;62.52;99199.72;4994358;28;47772;-65
2022/04/24 06:59:58;;;;;;;;;36.50;32.50;;;;;13.08;61.61;99204.09;4994494;28;45382;-63
2022/04/24 07:02:24;;;;;;;;;40.50;33.75;;;;;13.20;61.42;99205.00;4994446;28;45401;-59
2022/04/24 07:04:49;;;;;;;;;37.00;33.25;;;;;13.26;61.36;99203.72;4995023;28;45598;-62
2022/04/24 07:07:14;;;;;;;;;36.50;31.25;;;;;13.39;61.39;99204.50;4993817;28;46372;-61
2022/04/24 07:09:40;;;;;;;;;33.50;32.25;;;;;13.43;60.65;99200.72;4994379;28;45245;-63
2022/04/24 07:12:06;;;;;;;;;42.00;34.50;;;;;13.46;60.24;99204.91;4994300;28;45284;-62
2022/04/24 07:14:32;;;;;;;;;35.00;30.50;;;;;13.50;60.27;99202.91;4994301;28;45524;-61
2022/04/24 07:16:57;;;;;;;;;39.25;32.50;;;;;13.54;59.85;99205.19;4976777;28;47276;-63
2022/04/24 07:19:23;;;;;;;;;44.25;35.75;;;;;13.60;60.04;99214.47;4994539;28;45207;-60
2022/04/24 07:21:49;;;;;;;;;40.00;35.25;;;;;13.68;59.96;99219.16;4995011;28;45454;-64
2022/04/24 07:24:15;;;;;;;;;31.75;29.25;;;;;13.75;59.45;99217.72;4980001;28;45544;-63
2022/04/24 07:26:41;;;;;;;;;48.75;38.50;;;;;13.75;59.16;99211.63;4997247;28;45809;-61
2022/04/24 07:29:06;;;;;;;;;41.00;34.00;;;;;13.85;59.35;99218.75;4995851;28;45567;-63
2022/04/24 07:31:31;;;;;;;;;35.75;33.75;;;;;13.97;59.02;99226.69;4996997;28;45397;-64
2022/04/24 07:33:58;;;;;;;;;31.00;27.25;;;;;14.07;59.13;99232.97;4996342;28;45440;-63
2022/04/24 07:36:24;;;;;;;;;38.25;33.25;;;;;14.21;58.82;99231.91;4997361;28;47126;-63
2022/04/24 07:38:50;;;;;;;;;38.00;33.50;;;;;14.38;58.73;99235.88;4996865;28;45408;-63
2022/04/24 07:41:16;;;;;;;;;43.75;35.50;;;;;14.43;58.21;99231.09;4997203;28;45258;-60
2022/04/24 07:43:48;;;;;;;;;42.25;35.25;;;;;14.48;57.52;99235.16;4997332;28;45517;-61
2022/04/24 07:46:14;;;;;;;;;40.25;33.25;;;;;14.51;57.80;99237.56;4995944;28;46708;-62
2022/04/24 07:48:39;;;;;;;;;43.50;34.00;;;;;14.54;57.62;99230.25;4995185;28;45453;-62
2022/04/24 07:51:04;;;;;;;;;44.00;35.25;;;;;14.63;57.44;99228.66;4996776;28;45337;-61
2022/04/24 07:53:30;;;;;;;;;46.00;36.25;;;;;14.70;57.48;99237.84;4997045;28;45343;-61
2022/04/24 07:55:55;;;;;;;;;42.50;34.25;;;;;14.81;57.21;99237.00;5001296;28;45420;-61
2022/04/24 07:58:20;;;;;;;;;39.75;33.50;;;;;14.95;56.68;99237.69;5004448;28;45454;-63
2022/04/24 08:00:47;;;;;;;;;39.75;34.75;;;;;15.02;56.61;99244.19;4996818;28;45508;-62
2022/04/24 08:03:14;;;;;;;;;36.00;32.50;;;;;15.00;56.30;99241.69;5014572;28;45305;-64
2022/04/24 08:05:40;;;;;;;;;39.75;32.50;;;;;15.06;56.14;99242.16;4981184;28;45463;-60
2022/04/24 08:08:07;;;;;;;;;37.25;33.50;;;;;15.15;56.40;99246.69;4980891;28;45357;-60
2022/04/24 08:10:35;;;;;;;;;40.50;33.75;;;;;15.28;56.10;99250.03;4996588;28;45345;-60
2022/04/24 08:13:04;;;;;;;;;41.50;34.50;;;;;15.47;55.28;99252.03;4994614;28;45366;-62
2022/04/24 08:15:30;;;;;;;;;37.75;34.00;;;;;15.66;55.12;99250.50;4988800;28;48294;-60
2022/04/24 08:17:55;;;;;;;;;42.50;35.25;;;;;15.84;54.68;99248.13;4986783;28;45373;-59
2022/04/24 08:20:21;;;;;;;;;37.50;34.00;;;;;15.98;53.80;99257.59;4976961;28;45376;-63
2022/04/24 08:22:49;;;;;;;;;41.50;35.75;;;;;16.05;53.53;99255.28;4989059;28;45318;-59
2022/04/24 08:25:17;;;;;;;;;45.50;34.50;;;;;16.11;53.87;99248.63;4994494;28;46908;-67
2022/04/24 08:27:43;;;;;;;;;43.50;36.50;;;;;16.26;52.81;99249.13;4985524;28;46164;-62
2022/04/24 08:30:10;;;;;;;;;43.25;36.00;;;;;16.42;52.83;99252.16;4993136;28;45319;-59
2022/04/24 08:32:36;;;;;;;;;44.50;35.75;;;;;16.53;52.84;99253.03;4996132;28;45310;-59
2022/04/24 08:35:02;;;;;;;;;45.25;35.50;;;;;16.59;51.96;99253.34;4985729;28;46241;-60
2022/04/24 08:37:29;;;;;;;;;36.50;32.75;;;;;16.58;51.37;99249.03;4976562;28;45912;-60
2022/04/24 08:39:54;;;;;;;;;44.25;37.25;;;;;16.53;51.52;99255.69;4976854;28;45423;-65
2022/04/24 08:42:21;;;;;;;;;38.25;34.75;;;;;16.64;52.32;99260.91;4976703;28;45578;-63
2022/04/24 08:44:51;;;;;;;;;42.50;35.00;;;;;16.78;51.26;99260.53;4976250;28;46537;-66
2022/04/24 08:47:18;;;;;;;;;45.00;36.00;;;;;16.78;51.08;99260.53;4976216;28;45483;-64
2022/04/24 08:49:44;;;;;;;;;36.00;32.00;;;;;16.73;50.79;99265.41;4976263;28;45311;-65
2022/04/24 08:52:11;;;;;;;;;47.00;38.00;;;;;16.67;51.14;99260.63;4976727;28;45406;-63
2022/04/24 08:54:39;;;;;;;;;42.25;35.00;;;;;16.67;51.18;99267.78;4974792;28;47910;-62
2022/04/24 08:57:04;;;;;;;;;41.00;36.00;;;;;16.70;50.69;99272.81;4976380;28;45317;-61
2022/04/24 08:59:30;;;;;;;;;44.75;36.25;;;;;16.76;50.83;99272.28;4976329;28;45180;-61
2022/04/24 09:01:58;;;;;;;;;42.25;34.50;;;;;16.89;50.03;99272.03;4976371;28;45409;-63
2022/04/24 09:04:25;;;;;;;;;44.75;38.25;;;;;16.95;50.63;99271.50;4976017;28;45527;-65
2022/04/24 09:06:55;;;;;;;;;40.75;35.50;;;;;17.05;50.36;99271.56;4976024;28;45304;-63
2022/04/24 09:09:21;;;;;;;;;45.00;34.00;;;;;17.21;50.51;99274.53;4975985;28;45351;-60
2022/04/24 09:11:46;;;;;;;;;43.50;37.25;;;;;17.32;49.94;99273.59;4975927;28;45464;-64
2022/04/24 09:14:14;;;;;;;;;37.25;34.25;;;;;17.33;49.36;99277.06;4958264;28;47258;-66
2022/04/24 09:16:50;;;;;;;;;39.75;33.00;;;;;17.34;49.30;99276.94;4975517;28;45317;-61
2022/04/24 09:19:20;;;;;;;;;43.25;35.00;;;;;17.36;48.57;99282.97;4974108;28;45802;-65
2022/04/24 09:21:46;;;;;;;;;43.50;35.50;;;;;17.39;48.46;99281.84;4976072;28;45328;-65
2022/04/24 09:24:11;;;;;;;;;42.25;35.25;;;;;17.40;48.86;99285.34;4975709;28;45436;-64
2022/04/24 09:26:37;;;;;;;;;35.25;30.25;;;;;17.42;48.33;99294.03;4975443;28;45305;-63
2022/04/24 09:29:10;;;;;;;;;36.75;32.75;;;;;17.49;48.60;99295.97;4975539;28;45313;-64
2022/04/24 09:31:35;;;;;;;;;37.75;33.25;;;;;17.63;48.14;99294.75;4975763;28;45407;-63
2022/04/24 09:34:01;;;;;;;;;38.00;33.50;;;;;17.63;48.24;99296.56;4975917;28;46513;-65
2022/04/24 09:36:26;;;;;;;;;35.75;33.00;;;;;17.71;48.15;99294.06;4975776;28;45490;-65
2022/04/24 09:38:52;;;;;;;;;39.00;32.75;;;;;17.67;47.41;99290.00;4975547;28;45349;-65
2022/04/24 09:41:22;;;;;;;;;42.50;36.00;;;;;17.60;47.57;99305.66;4975472;28;45505;-61
2022/04/24 09:43:49;;;;;;;;;36.25;32.25;;;;;17.44;47.76;99302.69;4975560;28;46561;-62
2022/04/24 09:46:25;;;;;;;;;38.25;32.25;;;;;17.40;47.61;99303.94;4975300;28;45309;-66
2022/04/24 09:48:52;;;;;;;;;38.50;34.00;;;;;17.43;47.45;99306.34;4975447;28;45290;-60
2022/04/24 09:51:17;;;;;;;;;37.50;32.00;;;;;17.45;47.51;99309.69;4975854;28;45370;-62
2022/04/24 09:53:45;;;;;;;;;44.00;34.00;;;;;17.40;47.04;99298.63;4975055;28;46604;-65
2022/04/24 09:56:11;;;;;;;;;37.50;32.00;;;;;17.46;47.06;99308.72;4975101;28;45302;-62
2022/04/24 09:58:37;;;;;;;;;39.00;34.00;;;;;17.41;46.88;99305.63;4975408;28;45290;-63
2022/04/24 10:01:04;;;;;;;;;37.25;33.25;;;;;17.40;46.93;99311.94;4975449;28;45399;-60
2022/04/24 10:03:30;;;;;;;;;43.25;36.50;;;;;17.41;47.37;99316.25;4975260;28;47398;-60
2022/04/24 10:05:56;;;;;;;;;39.00;33.75;;;;;17.45;46.72;99320.34;4957071;28;45498;-63
2022/04/24 10:08:22;;;;;;;;;34.75;31.50;;;;;17.41;47.13;99314.44;4974744;28;45391;-66
2022/04/24 10:10:48;;;;;;;;;37.75;32.75;;;;;17.44;46.84;99316.00;4975104;28;45353;-63
2022/04/24 10:13:14;;;;;;;;;39.75;34.00;;;;;17.37;47.31;99318.34;4974604;28;46194;-63
2022/04/24 10:15:49;;;;;;;;;34.50;32.50;;;;;17.41;47.27;99322.41;4974449;28;45492;-64
2022/04/24 10:18:30;;;;;;;;;42.75;35.00;;;;;17.47;47.39;99321.03;4974812;28;45325;-64
2022/04/24 10:21:21;;;;;;;;;38.50;34.50;;;;;17.67;47.43;99330.72;4974867;28;45506;-64
2022/04/24 10:23:46;;;;;;;;;43.25;33.50;;;;;17.78;46.73;99329.75;4974311;28;45650;-62
2022/04/24 10:26:22;;;;;;;;;43.50;35.50;;;;;17.79;47.08;99330.56;4974650;28;45287;-61
2022/04/24 10:28:59;;;;;;;;;41.25;33.25;;;;;17.87;47.19;99333.38;4974809;28;45266;-65
2022/04/24 10:31:25;;;;;;;;;37.00;33.50;;;;;17.91;46.90;99325.97;4973345;28;45512;-63
2022/04/24 10:33:52;;;;;;;;;38.75;33.50;;;;;17.87;47.02;99337.88;4974208;28;46052;-65
2022/04/24 10:36:18;;;;;;;;;33.50;31.75;;;;;17.78;47.66;99339.53;4956495;28;45786;-65
2022/04/24 10:38:59;;;;;;;;;44.00;36.00;;;;;17.78;47.72;99343.06;4974663;28;45404;-67
2022/04/24 10:41:29;;;;;;;;;44.50;34.25;;;;;17.88;47.58;99343.03;4974695;28;45457;-65
2022/04/24 10:44:07;;;;;;;;;40.00;33.00;;;;;17.94;47.80;99353.13;4974587;28;46707;-65
2022/04/24 10:46:33;;;;;;;;;45.00;35.25;;;;;18.12;47.65;99356.94;4974325;28;45314;-67
2022/04/24 10:49:15;;;;;;;;;34.50;32.50;;;;;18.23;46.51;99347.00;4974271;28;45361;-68
2022/04/24 10:51:43;;;;;;;;;34.50;31.25;;;;;18.31;46.54;99343.63;4974580;28;45301;-64
2022/04/24 10:54:13;;;;;;;;;36.25;33.00;;;;;18.44;46.48;99356.66;4973564;28;45270;-64
2022/04/24 10:56:42;;;;;;;;;38.50;31.75;;;;;18.63;46.22;99352.25;4974009;28;45369;-69
2022/04/24 10:59:11;;;;;;;;;39.00;34.75;;;;;18.68;46.11;99358.84;4977121;28;45336;-67
2022/04/24 11:01:42;;;;;;;;;36.25;33.25;;;;;18.80;45.58;99356.81;4977343;28;45525;-66
2022/04/24 11:04:09;;;;;;;;;35.75;32.00;;;;;19.02;45.77;99351.31;4977291;28;46305;-67
2022/04/24 11:06:35;;;;;;;;;34.50;31.75;;;;;19.26;45.37;99354.28;4959573;28;45406;-64
2022/04/24 11:09:11;;;;;;;;;36.50;32.25;;;;;19.51;44.71;99362.56;4977512;28;45470;-61
2022/04/24 11:11:51;;;;;;;;;37.25;33.25;;;;;19.74;44.49;99359.50;4976935;28;45409;-64
2022/04/24 11:14:24;;;;;;;;;36.25;31.25;;;;;19.91;43.72;99355.19;4976588;28;45590;-62